Time;durP1;ratioP1;P1;durP2;ratioP2;P2;SDS_P1;SDS_P2;PMS_P1;PMS_P2;Temp;Humidity;BMP_temperature;BMP_pressure;BME280_temperature;BME280_humidity;BME280_pressure;Samples;Min_cycle;Max_cycle;Signal;HPM_P1;HPM_P2
2024/04/21 00:02:10;;;;;;;5.40;1.70;;;;;;;;;;11073037;26;20359;-63
2024/04/21 00:07:11;;;;;;;2.50;1.50;;;;;;;;;;11118031;26;20040;-63
2024/04/21 00:12:12;;;;;;;1.40;1.30;;;;;;;;;;11093119;26;20035;-63
2024/04/21 00:17:13;;;;;;;3.33;1.38;;;;;;;;;;11124719;26;20106;-63
2024/04/21 00:22:15;;;;;;;1.63;1.27;;;;;;;;;;11124134;26;20030;-63
2024/04/21 00:27:16;;;;;;;3.22;1.33;;;;;;;;;;11123478;26;20008;-63
2024/04/21 00:32:17;;;;;;;2.03;1.42;;;;;;;;;;11124575;26;20004;-63
2024/04/21 00:37:18;;;;;;;2.85;1.30;;;;;;;;;;11113697;26;20054;-64
2024/04/21 00:42:19;;;;;;;3.25;1.35;;;;;;;;;;11112967;26;20016;-63
2024/04/21 00:47:20;;;;;;;1.90;1.40;;;;;;;;;;11126152;26;20099;-63
2024/04/21 00:52:22;;;;;;;4.60;2.03;;;;;;;;;;11110360;26;20041;-63
2024/04/21 00:57:23;;;;;;;2.90;1.33;;;;;;;;;;11107806;26;20019;-63
2024/04/21 01:02:24;;;;;;;2.05;1.55;;;;;;;;;;11122236;26;20035;-63
2024/04/21 01:07:25;;;;;;;2.28;1.40;;;;;;;;;;11124428;26;20036;-64
2024/04/21 01:12:26;;;;;;;1.30;1.20;;;;;;;;;;11118518;26;20510;-64
2024/04/21 01:17:27;;;;;;;2.38;1.65;;;;;;;;;;11120073;26;20027;-64
2024/04/21 01:22:29;;;;;;;1.42;1.33;;;;;;;;;;11120003;26;20076;-63
2024/04/21 01:27:30;;;;;;;2.95;1.50;;;;;;;;;;11098584;26;20098;-64
2024/04/21 01:32:31;;;;;;;3.08;1.40;;;;;;;;;;11111307;26;20024;-64
2024/04/21 01:37:32;;;;;;;2.08;1.40;;;;;;;;;;11122400;26;20730;-63
2024/04/21 01:42:33;;;;;;;1.73;1.20;;;;;;;;;;11116176;26;20079;-63
2024/04/21 01:47:34;;;;;;;1.70;1.35;;;;;;;;;;11120993;26;20027;-63
2024/04/21 01:52:35;;;;;;;1.30;1.20;;;;;;;;;;11121012;26;20393;-63
2024/04/21 01:57:37;;;;;;;1.60;1.50;;;;;;;;;;11100441;26;20078;-63
2024/04/21 02:02:38;;;;;;;3.05;1.77;;;;;;;;;;11046157;26;20009;-63
2024/04/21 02:07:40;;;;;;;2.15;1.60;;;;;;;;;;11050476;26;20482;-63
2024/04/21 02:12:41;;;;;;;2.22;1.63;;;;;;;;;;11034228;26;20029;-63
2024/04/21 02:17:42;;;;;;;1.48;1.38;;;;;;;;;;11047049;26;20028;-63
2024/04/21 02:22:43;;;;;;;1.58;1.48;;;;;;;;;;11047271;26;20012;-63
2024/04/21 02:27:44;;;;;;;3.13;1.48;;;;;;;;;;11047328;26;20120;-63
2024/04/21 02:32:45;;;;;;;3.33;1.52;;;;;;;;;;11044482;26;20005;-63
2024/04/21 02:37:46;;;;;;;3.35;2.00;;;;;;;;;;11046468;26;20132;-63
2024/04/21 02:42:48;;;;;;;5.47;1.63;;;;;;;;;;11035574;26;20516;-63
2024/04/21 02:47:49;;;;;;;1.67;1.42;;;;;;;;;;11047518;26;20033;-63
2024/04/21 02:52:50;;;;;;;2.33;1.67;;;;;;;;;;11036158;26;20100;-63
2024/04/21 02:57:51;;;;;;;2.22;1.60;;;;;;;;;;11053400;26;20040;-64
2024/04/21 03:02:52;;;;;;;2.45;1.50;;;;;;;;;;11123793;26;20104;-63
2024/04/21 03:07:53;;;;;;;1.70;1.60;;;;;;;;;;11125467;26;20367;-63
2024/04/21 03:12:56;;;;;;;2.95;1.77;;;;;;;;;;11126166;26;20047;-63
2024/04/21 03:17:57;;;;;;;4.03;1.60;;;;;;;;;;11124523;26;20058;-63
2024/04/21 03:22:58;;;;;;;2.50;1.65;;;;;;;;;;11126268;26;20024;-63
2024/04/21 03:27:59;;;;;;;2.97;1.50;;;;;;;;;;11108143;26;20029;-64
2024/04/21 03:33:00;;;;;;;1.83;1.70;;;;;;;;;;11113325;26;20107;-64
2024/04/21 03:38:01;;;;;;;1.63;1.45;;;;;;;;;;11108616;26;20024;-63
2024/04/21 03:43:02;;;;;;;3.60;1.92;;;;;;;;;;11118338;26;20015;-63
2024/04/21 03:48:04;;;;;;;2.53;1.65;;;;;;;;;;11091746;26;20025;-64
2024/04/21 03:53:05;;;;;;;1.85;1.58;;;;;;;;;;11121261;26;20048;-64
2024/04/21 03:58:07;;;;;;;1.73;1.55;;;;;;;;;;11123906;26;20015;-63
2024/04/21 04:03:08;;;;;;;2.85;1.98;;;;;;;;;;11126186;26;20032;-63
2024/04/21 04:08:09;;;;;;;1.88;1.50;;;;;;;;;;11123223;26;20034;-63
2024/04/21 04:13:10;;;;;;;2.45;1.70;;;;;;;;;;11116759;26;20072;-64
2024/04/21 04:18:11;;;;;;;2.58;1.80;;;;;;;;;;11109800;26;20333;-63
2024/04/21 04:23:13;;;;;;;1.58;1.42;;;;;;;;;;11116256;26;20036;-64
2024/04/21 04:28:14;;;;;;;8.30;1.98;;;;;;;;;;11095658;26;19996;-63
2024/04/21 04:33:15;;;;;;;5.15;1.60;;;;;;;;;;11109558;26;20009;-64
2024/04/21 04:38:16;;;;;;;2.83;1.98;;;;;;;;;;11116396;26;20411;-64
2024/04/21 04:43:17;;;;;;;1.60;1.50;;;;;;;;;;11104085;26;20119;-64
2024/04/21 04:48:18;;;;;;;1.83;1.40;;;;;;;;;;11118112;26;20036;-64
2024/04/21 04:53:19;;;;;;;2.85;1.65;;;;;;;;;;11111031;26;20023;-63
2024/04/21 04:58:20;;;;;;;1.77;1.67;;;;;;;;;;11108804;26;20024;-64
2024/04/21 05:03:21;;;;;;;1.63;1.50;;;;;;;;;;11120167;26;20132;-63
2024/04/21 05:08:23;;;;;;;1.90;1.70;;;;;;;;;;11121552;26;20115;-63
2024/04/21 05:13:24;;;;;;;3.03;2.00;;;;;;;;;;11111611;26;20040;-63
2024/04/21 05:18:25;;;;;;;3.10;1.80;;;;;;;;;;11108032;26;20081;-63
2024/04/21 05:23:26;;;;;;;1.83;1.50;;;;;;;;;;11105605;26;20558;-63
2024/04/21 05:28:27;;;;;;;3.67;2.10;;;;;;;;;;11107294;26;20539;-63
2024/04/21 05:33:28;;;;;;;1.70;1.60;;;;;;;;;;11114826;26;20043;-63
2024/04/21 05:38:29;;;;;;;2.28;1.73;;;;;;;;;;11120661;26;20073;-63
2024/04/21 05:43:30;;;;;;;2.10;1.75;;;;;;;;;;11113847;26;20634;-63
2024/04/21 05:48:32;;;;;;;4.07;1.70;;;;;;;;;;11109456;26;20016;-62
2024/04/21 05:53:33;;;;;;;3.85;1.80;;;;;;;;;;11118401;26;20436;-62
2024/04/21 05:58:34;;;;;;;1.98;1.60;;;;;;;;;;11120327;26;20011;-63
2024/04/21 06:03:36;;;;;;;3.78;1.50;;;;;;;;;;11101898;26;20092;-62
2024/04/21 06:08:37;;;;;;;1.77;1.67;;;;;;;;;;11117723;26;20000;-62
2024/04/21 06:13:38;;;;;;;1.85;1.75;;;;;;;;;;11118493;26;20088;-62
2024/04/21 06:18:39;;;;;;;2.42;1.90;;;;;;;;;;11099433;26;20044;-62
2024/04/21 06:23:40;;;;;;;1.60;1.50;;;;;;;;;;11108584;26;20487;-61
2024/04/21 06:28:42;;;;;;;2.08;1.58;;;;;;;;;;11117480;26;20032;-63
2024/04/21 06:33:43;;;;;;;1.88;1.35;;;;;;;;;;11109381;26;20015;-63
2024/04/21 06:38:44;;;;;;;1.92;1.60;;;;;;;;;;11111657;26;20042;-62
2024/04/21 06:43:45;;;;;;;1.40;1.30;;;;;;;;;;11119766;26;20008;-64
2024/04/21 06:48:46;;;;;;;1.88;1.40;;;;;;;;;;11127225;26;20115;-63
2024/04/21 06:53:47;;;;;;;3.08;1.35;;;;;;;;;;11109160;26;20023;-63
2024/04/21 06:58:48;;;;;;;8.20;1.70;;;;;;;;;;11117322;26;20097;-63
2024/04/21 07:04:15;;;;;;;9.80;1.77;;;;;;;;;;11117633;26;20475;-62
2024/04/21 07:09:16;;;;;;;1.80;1.45;;;;;;;;;;11123637;26;20556;-62
2024/04/21 07:14:18;;;;;;;3.17;1.45;;;;;;;;;;11107608;26;20036;-62
2024/04/21 07:19:19;;;;;;;3.60;1.58;;;;;;;;;;11125772;26;20008;-62
2024/04/21 07:24:20;;;;;;;5.10;2.45;;;;;;;;;;11096001;26;20000;-62
2024/04/21 07:29:22;;;;;;;3.97;1.40;;;;;;;;;;11122025;26;20434;-62
2024/04/21 07:34:23;;;;;;;9.45;1.48;;;;;;;;;;11108653;26;20436;-62
2024/04/21 07:39:27;;;;;;;7.25;1.80;;;;;;;;;;11110629;26;20000;-62
2024/04/21 07:44:28;;;;;;;10.77;1.65;;;;;;;;;;11109050;26;19996;-62
2024/04/21 07:49:29;;;;;;;6.03;1.23;;;;;;;;;;11103584;26;20098;-62
2024/04/21 07:54:31;;;;;;;2.55;1.30;;;;;;;;;;11116116;26;20024;-62
2024/04/21 07:59:32;;;;;;;1.60;1.27;;;;;;;;;;11056903;26;20052;-62
2024/04/21 08:04:33;;;;;;;2.05;1.55;;;;;;;;;;11046508;26;20643;-62
2024/04/21 08:09:34;;;;;;;3.33;1.75;;;;;;;;;;11042940;26;20028;-61
2024/04/21 08:14:35;;;;;;;4.43;1.48;;;;;;;;;;11040375;26;20016;-61
2024/04/21 08:19:36;;;;;;;1.42;1.17;;;;;;;;;;11033628;26;20016;-63
2024/04/21 08:24:38;;;;;;;3.85;1.38;;;;;;;;;;11042299;26;20128;-60
2024/04/21 08:29:39;;;;;;;7.00;1.88;;;;;;;;;;11044132;26;20040;-61
2024/04/21 08:34:40;;;;;;;4.88;1.60;;;;;;;;;;11028238;26;20096;-61
2024/04/21 08:39:41;;;;;;;10.98;1.42;;;;;;;;;;11051140;26;20001;-60
2024/04/21 08:44:43;;;;;;;9.90;1.75;;;;;;;;;;11051987;26;20235;-61
2024/04/21 08:49:45;;;;;;;2.53;1.30;;;;;;;;;;11051302;26;20449;-61
2024/04/21 08:54:47;;;;;;;1.92;1.20;;;;;;;;;;11050787;26;20037;-61
2024/04/21 08:59:50;;;;;;;1.65;1.33;;;;;;;;;;11092499;26;20004;-61
2024/04/21 09:04:53;;;;;;;7.13;1.23;;;;;;;;;;11093546;26;20031;-62
2024/04/21 09:09:54;;;;;;;3.75;1.60;;;;;;;;;;11091996;26;20419;-61
2024/04/21 09:14:55;;;;;;;2.60;1.40;;;;;;;;;;11122864;26;20463;-60
2024/04/21 09:19:56;;;;;;;1.45;1.35;;;;;;;;;;11110111;26;20071;-61
2024/04/21 09:24:57;;;;;;;2.20;1.55;;;;;;;;;;11124375;26;20094;-61
2024/04/21 09:29:59;;;;;;;2.25;1.40;;;;;;;;;;11090515;26;20028;-61
2024/04/21 09:35:02;;;;;;;1.80;1.30;;;;;;;;;;11123897;26;20371;-61
2024/04/21 09:40:05;;;;;;;1.30;1.10;;;;;;;;;;11121593;26;20252;-62
2024/04/21 09:45:08;;;;;;;2.63;1.05;;;;;;;;;;11090621;26;20077;-62
2024/04/21 09:50:11;;;;;;;1.45;1.10;;;;;;;;;;11122238;26;20102;-62
2024/04/21 09:55:12;;;;;;;2.35;1.50;;;;;;;;;;11124281;26;20015;-62
2024/04/21 10:00:18;;;;;;;3.08;1.40;;;;;;;;;;11089564;26;20005;-61
2024/04/21 10:05:22;;;;;;;1.50;1.40;;;;;;;;;;11093088;26;20448;-60
2024/04/21 10:10:25;;;;;;;2.80;1.50;;;;;;;;;;11090391;26;20059;-61
2024/04/21 10:15:28;;;;;;;1.55;1.23;;;;;;;;;;11119279;26;19996;-61
2024/04/21 10:20:32;;;;;;;1.33;1.23;;;;;;;;;;11121523;26;21730;-62
2024/04/21 10:25:43;;;;;;;1.40;1.30;;;;;;;;;;11122419;26;20012;-61
2024/04/21 10:30:44;;;;;;;1.55;1.25;;;;;;;;;;11118629;26;20000;-61
2024/04/21 10:35:45;;;;;;;1.65;1.25;;;;;;;;;;11121385;26;20055;-62
2024/04/21 10:40:48;;;;;;;1.20;1.13;;;;;;;;;;11120095;26;20032;-61
2024/04/21 10:45:49;;;;;;;1.98;1.30;;;;;;;;;;11118748;26;20035;-61
2024/04/21 10:50:50;;;;;;;1.58;1.20;;;;;;;;;;11120990;26;20070;-61
2024/04/21 10:55:56;;;;;;;1.27;1.17;;;;;;;;;;11121426;26;20295;-60
2024/04/21 11:00:57;;;;;;;1.75;1.25;;;;;;;;;;11098592;26;20028;-61
2024/04/21 11:06:02;;;;;;;2.92;1.10;;;;;;;;;;11119962;26;20090;-61
2024/04/21 11:11:03;;;;;;;4.95;1.30;;;;;;;;;;11090821;26;20004;-61
2024/04/21 11:16:11;;;;;;;2.00;1.23;;;;;;;;;;11105053;26;20077;-61
2024/04/21 11:21:12;;;;;;;1.20;1.20;;;;;;;;;;11123763;26;20001;-62
2024/04/21 11:26:16;;;;;;;1.50;1.15;;;;;;;;;;11125211;26;20004;-61
2024/04/21 11:31:17;;;;;;;2.55;1.30;;;;;;;;;;11127653;26;20317;-61
2024/04/21 11:36:21;;;;;;;3.38;1.10;;;;;;;;;;11126046;26;20016;-62
2024/04/21 11:41:23;;;;;;;3.63;1.30;;;;;;;;;;11124496;26;20007;-61
2024/04/21 11:46:24;;;;;;;1.77;1.10;;;;;;;;;;11124017;26;20237;-61
2024/04/21 11:51:25;;;;;;;5.22;1.65;;;;;;;;;;11126323;26;20119;-61
2024/04/21 11:56:27;;;;;;;2.60;1.20;;;;;;;;;;11092231;26;20004;-61
2024/04/21 12:01:28;;;;;;;1.35;1.23;;;;;;;;;;11023330;26;20020;-62
2024/04/21 12:06:29;;;;;;;1.75;1.35;;;;;;;;;;11028811;26;20013;-61
2024/04/21 12:11:31;;;;;;;1.70;1.13;;;;;;;;;;11052519;26;20004;-60
2024/04/21 12:16:32;;;;;;;1.40;1.30;;;;;;;;;;11054794;26;20005;-61
2024/04/21 12:21:33;;;;;;;1.20;1.10;;;;;;;;;;11051753;26;20029;-61
2024/04/21 12:26:34;;;;;;;1.50;1.27;;;;;;;;;;11051737;26;20097;-61
2024/04/21 12:31:36;;;;;;;1.38;1.10;;;;;;;;;;11041126;26;20045;-61
2024/04/21 12:36:37;;;;;;;1.27;1.17;;;;;;;;;;11044793;26;19997;-60
2024/04/21 12:41:38;;;;;;;2.95;1.00;;;;;;;;;;11041762;26;20519;-61
2024/04/21 12:46:39;;;;;;;1.33;1.20;;;;;;;;;;11047577;26;20021;-61
2024/04/21 12:51:40;;;;;;;1.13;1.13;;;;;;;;;;11051983;26;20092;-60
2024/04/21 12:56:41;;;;;;;2.25;1.15;;;;;;;;;;11054762;26;20004;-60
2024/04/21 13:01:43;;;;;;;1.63;1.20;;;;;;;;;;11114391;26;20531;-61
2024/04/21 13:06:44;;;;;;;1.20;1.02;;;;;;;;;;11109180;26;20444;-61
2024/04/21 13:11:45;;;;;;;1.40;1.30;;;;;;;;;;11110916;26;20000;-61
2024/04/21 13:16:46;;;;;;;2.72;1.10;;;;;;;;;;11105774;26;20036;-60
2024/04/21 13:21:50;;;;;;;1.20;1.10;;;;;;;;;;11113689;26;20426;-60
2024/04/21 13:26:51;;;;;;;2.50;1.20;;;;;;;;;;11114248;26;19997;-61
2024/04/21 13:31:53;;;;;;;1.40;1.30;;;;;;;;;;11105381;26;20016;-62
2024/04/21 13:36:54;;;;;;;1.15;1.05;;;;;;;;;;11115490;26;20498;-60
2024/04/21 13:41:55;;;;;;;2.45;1.23;;;;;;;;;;11108710;26;20085;-61
2024/04/21 13:46:56;;;;;;;1.17;1.10;;;;;;;;;;11104950;26;20079;-60
2024/04/21 13:51:59;;;;;;;1.33;1.20;;;;;;;;;;11117087;26;20028;-60
2024/04/21 13:57:02;;;;;;;1.20;1.10;;;;;;;;;;11063987;26;20465;-61
2024/04/21 14:02:03;;;;;;;1.33;1.10;;;;;;;;;;11110468;26;20078;-61
2024/04/21 14:07:05;;;;;;;1.40;1.30;;;;;;;;;;11115230;26;20590;-61
2024/04/21 14:12:06;;;;;;;1.25;1.15;;;;;;;;;;11117040;26;20479;-61
2024/04/21 14:17:07;;;;;;;1.30;1.20;;;;;;;;;;11112753;26;20028;-61
2024/04/21 14:22:10;;;;;;;1.30;1.20;;;;;;;;;;11094622;26;20056;-60
2024/04/21 14:27:11;;;;;;;1.42;1.00;;;;;;;;;;11116661;26;19997;-61
2024/04/21 14:32:12;;;;;;;1.48;1.15;;;;;;;;;;11106327;26;20103;-61
2024/04/21 14:37:16;;;;;;;3.40;1.05;;;;;;;;;;11112648;26;20498;-61
2024/04/21 14:42:17;;;;;;;1.17;1.08;;;;;;;;;;11097466;26;20011;-61
2024/04/21 14:47:19;;;;;;;2.83;1.08;;;;;;;;;;11105704;26;20340;-60
2024/04/21 14:52:21;;;;;;;12.88;1.77;;;;;;;;;;11084171;26;20375;-61
2024/04/21 14:57:22;;;;;;;11.07;2.22;;;;;;;;;;11112473;26;20003;-60
2024/04/21 15:02:24;;;;;;;10.50;1.80;;;;;;;;;;11106523;26;19996;-61
2024/04/21 15:07:26;;;;;;;11.25;1.88;;;;;;;;;;11106510;26;20011;-61
2024/04/21 15:12:27;;;;;;;16.75;1.83;;;;;;;;;;11122628;26;20040;-61
2024/04/21 15:17:28;;;;;;;5.68;1.95;;;;;;;;;;11124900;26;20000;-61
2024/04/21 15:22:29;;;;;;;3.08;1.38;;;;;;;;;;11126863;26;20489;-61
2024/04/21 15:27:30;;;;;;;7.10;1.52;;;;;;;;;;11127308;26;20004;-61
2024/04/21 15:32:31;;;;;;;7.93;1.80;;;;;;;;;;11127155;26;20088;-61
2024/04/21 15:37:37;;;;;;;4.75;1.63;;;;;;;;;;11124853;26;20036;-61
2024/04/21 15:42:40;;;;;;;6.85;1.55;;;;;;;;;;11127561;26;20456;-61
2024/04/21 15:47:44;;;;;;;1.73;1.05;;;;;;;;;;11123579;26;20011;-61
2024/04/21 15:52:46;;;;;;;1.25;1.15;;;;;;;;;;11127554;26;20444;-61
2024/04/21 15:57:47;;;;;;;6.88;1.50;;;;;;;;;;11125017;26;20023;-61
2024/04/21 16:02:48;;;;;;;2.92;1.08;;;;;;;;;;11127388;26;20044;-61
2024/04/21 16:07:50;;;;;;;5.78;1.23;;;;;;;;;;11124108;26;20359;-61
2024/04/21 16:12:51;;;;;;;2.08;0.98;;;;;;;;;;11127236;26;20000;-61
2024/04/21 16:17:52;;;;;;;2.15;1.30;;;;;;;;;;11125718;26;20501;-61
2024/04/21 16:22:53;;;;;;;2.72;1.27;;;;;;;;;;11125078;26;20004;-61
2024/04/21 16:27:54;;;;;;;5.22;1.17;;;;;;;;;;11121388;26;20106;-61
2024/04/21 16:32:56;;;;;;;2.10;1.15;;;;;;;;;;11125227;26;20035;-61
2024/04/21 16:37:57;;;;;;;6.45;1.40;;;;;;;;;;11123592;26;20073;-61
2024/04/21 16:42:58;;;;;;;1.25;1.05;;;;;;;;;;11124341;26;20090;-61
2024/04/21 16:48:06;;;;;;;1.52;1.13;;;;;;;;;;11125557;26;20073;-61
2024/04/21 16:53:08;;;;;;;4.30;1.20;;;;;;;;;;11123437;26;20008;-61
2024/04/21 16:58:09;;;;;;;1.65;1.15;;;;;;;;;;11121399;26;20434;-61
2024/04/21 17:03:11;;;;;;;5.60;1.42;;;;;;;;;;11124231;26;20370;-61
2024/04/21 17:08:34;;;;;;;4.03;1.10;;;;;;;;;;11123792;26;20074;-61
2024/04/21 17:13:35;;;;;;;1.40;1.00;;;;;;;;;;11123307;26;20046;-61
2024/04/21 17:18:38;;;;;;;2.47;1.10;;;;;;;;;;11123265;26;20000;-60
2024/04/21 17:23:39;;;;;;;1.30;1.10;;;;;;;;;;11105944;26;20007;-61
2024/04/21 17:28:40;;;;;;;1.42;1.13;;;;;;;;;;11123208;26;20449;-60
2024/04/21 17:33:42;;;;;;;2.30;0.90;;;;;;;;;;11106844;26;20000;-60
2024/04/21 17:38:43;;;;;;;2.13;1.38;;;;;;;;;;11124504;26;20008;-60
2024/04/21 17:43:44;;;;;;;0.85;0.80;;;;;;;;;;11120433;26;20090;-60
2024/04/21 17:48:45;;;;;;;1.05;0.98;;;;;;;;;;11123510;26;20440;-61
2024/04/21 17:53:46;;;;;;;2.83;0.98;;;;;;;;;;11120013;26;20114;-61
2024/04/21 17:58:47;;;;;;;1.17;1.10;;;;;;;;;;11122921;26;20127;-61
2024/04/21 18:03:48;;;;;;;1.65;1.10;;;;;;;;;;11120862;26;20031;-61
2024/04/21 18:08:49;;;;;;;5.70;1.00;;;;;;;;;;11120856;26;20012;-61
2024/04/21 18:13:51;;;;;;;2.58;1.10;;;;;;;;;;11121983;26;20111;-61
2024/04/21 18:18:52;;;;;;;1.27;1.00;;;;;;;;;;11119692;26;20000;-61
2024/04/21 18:23:53;;;;;;;1.20;1.00;;;;;;;;;;11122243;26;20004;-61
2024/04/21 18:28:54;;;;;;;1.15;1.05;;;;;;;;;;11125070;26;20290;-61
2024/04/21 18:33:56;;;;;;;1.27;1.10;;;;;;;;;;11135510;26;20569;-60
2024/04/21 18:38:57;;;;;;;1.23;1.08;;;;;;;;;;11134616;26;20007;-61
2024/04/21 18:43:58;;;;;;;1.70;0.90;;;;;;;;;;11136770;26;20036;-61
2024/04/21 18:48:59;;;;;;;1.55;1.10;;;;;;;;;;11135183;26;20485;-61
2024/04/21 18:54:00;;;;;;;0.90;0.90;;;;;;;;;;11137786;26;20041;-61
2024/04/21 18:59:01;;;;;;;1.52;1.10;;;;;;;;;;11134110;26;20000;-60
2024/04/21 19:04:03;;;;;;;1.20;1.10;;;;;;;;;;11136595;26;20351;-60
2024/04/21 19:09:04;;;;;;;1.15;1.00;;;;;;;;;;11132822;26;20039;-60
2024/04/21 19:14:06;;;;;;;2.25;1.30;;;;;;;;;;11135282;26;20085;-60
2024/04/21 19:19:08;;;;;;;1.20;1.00;;;;;;;;;;11134824;26;20349;-61
2024/04/21 19:24:10;;;;;;;2.15;1.10;;;;;;;;;;11135582;26;20000;-61
2024/04/21 19:29:11;;;;;;;1.02;1.00;;;;;;;;;;11133755;26;20103;-60
2024/04/21 19:34:12;;;;;;;0.90;0.90;;;;;;;;;;11134623;26;20098;-60
2024/04/21 19:39:13;;;;;;;0.98;0.98;;;;;;;;;;11132355;26;20429;-60
2024/04/21 19:44:15;;;;;;;1.00;0.98;;;;;;;;;;11124648;26;20008;-60
2024/04/21 19:49:16;;;;;;;1.20;1.00;;;;;;;;;;11111535;26;20004;-60
2024/04/21 19:54:17;;;;;;;1.15;1.05;;;;;;;;;;11125254;26;20435;-60
2024/04/21 19:59:18;;;;;;;1.02;1.02;;;;;;;;;;11124949;26;20028;-60
2024/04/21 20:04:19;;;;;;;1.23;1.05;;;;;;;;;;11127061;26;20464;-60
2024/04/21 20:09:20;;;;;;;1.35;1.15;;;;;;;;;;11125956;26;20100;-60
2024/04/21 20:14:22;;;;;;;1.00;1.00;;;;;;;;;;11126666;26;20036;-60
2024/04/21 20:19:24;;;;;;;1.55;1.20;;;;;;;;;;11123660;26;20015;-60
2024/04/21 20:24:25;;;;;;;1.85;1.50;;;;;;;;;;11125963;26;20000;-60
2024/04/21 20:29:26;;;;;;;1.33;1.23;;;;;;;;;;11124170;26;20095;-60
2024/04/21 20:34:28;;;;;;;1.23;1.00;;;;;;;;;;11125388;26;20646;-60
2024/04/21 20:39:29;;;;;;;1.58;1.15;;;;;;;;;;11121670;26;20007;-60
2024/04/21 20:44:30;;;;;;;1.20;1.10;;;;;;;;;;11123767;26;20004;-60
2024/04/21 20:49:31;;;;;;;1.20;1.10;;;;;;;;;;11119419;26;20042;-60
2024/04/21 20:54:33;;;;;;;1.23;1.13;;;;;;;;;;11121137;26;20032;-60
2024/04/21 20:59:34;;;;;;;1.38;1.15;;;;;;;;;;11123368;26;20000;-60
2024/04/21 21:04:35;;;;;;;1.30;1.20;;;;;;;;;;11106432;26;20007;-60
2024/04/21 21:09:36;;;;;;;1.33;1.20;;;;;;;;;;11094300;26;20041;-60
2024/04/21 21:14:37;;;;;;;1.88;1.05;;;;;;;;;;11123063;26;20107;-60
2024/04/21 21:19:39;;;;;;;1.40;1.27;;;;;;;;;;11123911;26;20303;-60
2024/04/21 21:24:40;;;;;;;1.40;1.10;;;;;;;;;;11103735;26;19997;-63
2024/04/21 21:29:41;;;;;;;25.92;1.45;;;;;;;;;;11092201;26;20378;-62
2024/04/21 21:34:46;;;;;;;1.85;1.25;;;;;;;;;;11080192;26;20090;-62
2024/04/21 21:39:48;;;;;;;17.02;1.77;;;;;;;;;;11085173;26;20093;-63
2024/04/21 21:44:50;;;;;;;17.25;1.63;;;;;;;;;;11079872;26;20028;-63
2024/04/21 21:49:51;;;;;;;14.68;1.90;;;;;;;;;;11106596;26;20007;-64
2024/04/21 21:54:52;;;;;;;5.65;1.40;;;;;;;;;;11118082;26;20095;-64
2024/04/21 21:59:53;;;;;;;3.35;1.23;;;;;;;;;;11106075;26;20051;-67
2024/04/21 22:04:55;;;;;;;10.98;1.65;;;;;;;;;;11117676;26;20094;-64
2024/04/21 22:09:56;;;;;;;5.18;1.83;;;;;;;;;;11119522;26;20010;-66
2024/04/21 22:14:57;;;;;;;6.72;1.65;;;;;;;;;;11117788;26;20105;-63
2024/04/21 22:19:58;;;;;;;2.05;1.30;;;;;;;;;;11114125;26;20081;-65
2024/04/21 22:24:59;;;;;;;5.50;1.50;;;;;;;;;;11120506;26;20309;-64
2024/04/21 22:30:01;;;;;;;4.53;1.33;;;;;;;;;;11118287;26;20032;-65
2024/04/21 22:35:02;;;;;;;1.40;1.30;;;;;;;;;;11121074;26;20000;-63
2024/04/21 22:40:03;;;;;;;6.07;1.85;;;;;;;;;;11119785;26;20043;-64
2024/04/21 22:45:05;;;;;;;2.78;1.30;;;;;;;;;;11119486;26;20016;-63
2024/04/21 22:50:06;;;;;;;2.58;1.20;;;;;;;;;;11116659;26;20033;-62
2024/04/21 22:55:08;;;;;;;3.25;1.50;;;;;;;;;;11119796;26;20115;-62
2024/04/21 23:00:09;;;;;;;2.10;1.13;;;;;;;;;;11119093;26;20045;-62
2024/04/21 23:05:11;;;;;;;2.72;1.48;;;;;;;;;;11112813;26;20406;-62
2024/04/21 23:10:12;;;;;;;2.67;1.20;;;;;;;;;;11117752;26;20029;-64
2024/04/21 23:15:13;;;;;;;1.27;1.10;;;;;;;;;;11116570;26;20056;-64
2024/04/21 23:20:14;;;;;;;4.68;1.20;;;;;;;;;;11126273;26;20084;-64
2024/04/21 23:25:15;;;;;;;1.13;1.08;;;;;;;;;;11128634;26;20081;-62
2024/04/21 23:30:16;;;;;;;5.22;1.33;;;;;;;;;;11105220;26;20110;-63
2024/04/21 23:35:17;;;;;;;1.50;1.40;;;;;;;;;;11128231;26;20128;-64
2024/04/21 23:40:19;;;;;;;1.40;1.23;;;;;;;;;;11125468;26;20036;-63
2024/04/21 23:45:20;;;;;;;1.77;1.30;;;;;;;;;;11096285;26;20439;-63
2024/04/21 23:50:21;;;;;;;2.67;1.20;;;;;;;;;;11126304;26;20032;-63
2024/04/21 23:55:22;;;;;;;1.25;1.10;;;;;;;;;;11125347;26;20581;-63
